createdAt,value
2023-04-15T00:00:34.858Z,5.13
2023-04-15T00:04:59.842Z,5.17
2023-04-15T00:09:26.878Z,5.26
2023-04-15T00:13:50.768Z,5.39
2023-04-15T00:18:15.827Z,5.38
2023-04-15T00:22:40.806Z,5.38
2023-04-15T00:27:04.989Z,5.31
2023-04-15T00:31:28.899Z,5.33
2023-04-15T00:35:55.797Z,5.35
2023-04-15T00:40:19.728Z,5.41
2023-04-15T00:44:49.646Z,5.52
2023-04-15T00:49:14.785Z,5.59
2023-04-15T00:53:38.726Z,5.64
2023-04-15T00:58:03.722Z,5.63
2023-04-15T01:02:27.709Z,5.58
2023-04-15T01:06:51.996Z,5.68
2023-04-15T01:11:21.642Z,5.77
2023-04-15T01:15:45.573Z,5.77
2023-04-15T01:20:15.441Z,5.77
2023-04-15T01:24:39.432Z,5.83
2023-04-15T01:29:12.700Z,5.80
2023-04-15T01:33:38.982Z,5.81
2023-04-15T01:38:05.968Z,5.88
2023-04-15T01:42:35.982Z,5.88
2023-04-15T01:47:06.281Z,5.77
2023-04-15T01:51:35.838Z,5.76
2023-04-15T01:56:05.779Z,5.83
2023-04-15T02:00:33.283Z,5.86
2023-04-15T02:04:57.231Z,5.85
2023-04-15T02:09:21.149Z,5.81
2023-04-15T02:13:45.090Z,5.73
2023-04-15T02:18:00.919Z,5.63
2023-04-15T02:22:24.952Z,5.62
2023-04-15T02:26:48.891Z,5.63
2023-04-15T02:31:13.891Z,5.63
2023-04-15T02:35:41.763Z,5.62
2023-04-15T02:40:05.815Z,5.60
2023-04-15T02:44:28.420Z,5.64
2023-04-15T02:48:50.984Z,5.62
2023-04-15T02:53:17.922Z,5.61
2023-04-15T02:57:42.917Z,5.64
2023-04-15T03:02:07.933Z,5.67
2023-04-15T03:06:33.023Z,5.70
2023-04-15T03:10:59.024Z,5.74
2023-04-15T03:15:22.790Z,5.74
2023-04-15T03:19:48.808Z,5.64
2023-04-15T03:24:25.327Z,5.56
2023-04-15T03:28:50.223Z,5.51
2023-04-15T03:33:16.117Z,5.53
2023-04-15T03:37:50.659Z,5.43
2023-04-15T03:42:25.421Z,5.41
2023-04-15T03:47:30.926Z,5.31
2023-04-15T03:52:07.101Z,5.26
2023-04-15T03:56:42.918Z,5.30
2023-04-15T04:01:43.243Z,5.40
2023-04-15T04:06:09.180Z,5.38
2023-04-15T04:10:51.164Z,5.40
2023-04-15T04:15:33.316Z,5.40
2023-04-15T04:20:05.440Z,5.51
2023-04-15T04:24:31.358Z,5.61
2023-04-15T04:28:55.303Z,5.67
2023-04-15T04:33:23.296Z,5.69
2023-04-15T04:37:47.274Z,5.74
2023-04-15T04:42:15.587Z,5.76
2023-04-15T04:46:39.568Z,5.65
2023-04-15T04:51:04.502Z,5.68
2023-04-15T04:55:36.831Z,5.61
2023-04-15T05:00:11.181Z,5.74
2023-04-15T05:04:51.418Z,5.89
2023-04-15T05:09:16.298Z,5.92
2023-04-15T05:13:33.948Z,5.97
2023-04-15T05:17:58.857Z,6.07
2023-04-15T05:22:23.870Z,6.08
2023-04-15T05:26:47.722Z,6.01
2023-04-15T05:31:11.694Z,6.08
2023-04-15T05:35:35.808Z,6.22
2023-04-15T05:40:00.760Z,6.30
2023-04-15T05:44:24.687Z,6.36
2023-04-15T05:48:48.945Z,6.37
2023-04-15T05:53:13.083Z,6.39
2023-04-15T05:57:37.818Z,6.46
2023-04-15T06:01:56.304Z,6.49
2023-04-15T06:06:26.213Z,6.59
2023-04-15T06:10:50.180Z,6.68
2023-04-15T06:15:14.142Z,6.71
2023-04-15T06:19:44.069Z,6.77
2023-04-15T06:24:09.908Z,6.83
2023-04-15T06:28:33.727Z,6.91
2023-04-15T06:32:58.766Z,7.02
2023-04-15T06:37:22.804Z,7.30
2023-04-15T06:41:47.355Z,7.48
2023-04-15T06:46:12.227Z,7.82
2023-04-15T06:50:37.210Z,8.25
2023-04-15T06:55:02.286Z,8.51
2023-04-15T06:59:46.244Z,8.78
2023-04-15T07:03:52.288Z,8.74
2023-04-15T07:08:17.265Z,8.56
2023-04-15T07:12:41.709Z,8.48
2023-04-15T07:17:05.953Z,8.45
2023-04-15T07:21:32.229Z,8.55
2023-04-15T07:25:57.056Z,8.74
2023-04-15T07:30:20.918Z,8.71
2023-04-15T07:34:45.800Z,8.68
2023-04-15T07:39:02.167Z,8.70
2023-04-15T07:43:27.352Z,8.57
2023-04-15T07:47:51.442Z,8.66
2023-04-15T07:52:16.425Z,8.88
2023-04-15T07:56:41.500Z,9.01
2023-04-15T08:01:05.646Z,9.06
2023-04-15T08:05:29.694Z,9.08
2023-04-15T08:09:54.592Z,9.06
2023-04-15T08:14:20.099Z,9.09
2023-04-15T08:18:37.499Z,9.11
2023-04-15T08:23:01.409Z,9.10
2023-04-15T08:27:25.657Z,9.05
2023-04-15T08:31:49.683Z,8.96
2023-04-15T08:36:13.582Z,8.89
2023-04-15T08:40:38.711Z,8.84
2023-04-15T08:45:02.577Z,8.78
2023-04-15T08:49:27.582Z,8.72
2023-04-15T08:53:53.596Z,8.68
2023-04-15T08:58:19.789Z,8.64
2023-04-15T09:02:44.026Z,8.52
2023-04-15T09:07:09.616Z,8.35
2023-04-15T09:11:53.345Z,8.21
2023-04-15T09:16:17.436Z,8.15
2023-04-15T09:20:49.664Z,8.17
2023-04-15T09:25:16.189Z,8.29
2023-04-15T09:30:15.476Z,8.46
2023-04-15T09:34:59.413Z,8.54
2023-04-15T09:39:33.353Z,8.58
2023-04-15T09:43:57.312Z,8.65
2023-04-15T09:48:41.147Z,8.65
2023-04-15T09:53:11.408Z,8.62
2023-04-15T09:57:35.456Z,8.39
2023-04-15T10:02:01.581Z,7.81
2023-04-15T10:06:27.604Z,7.29
2023-04-15T10:10:51.529Z,6.75
2023-04-15T10:15:16.944Z,6.49
2023-04-15T10:19:57.286Z,6.28
2023-04-15T10:24:21.188Z,6.10
2023-04-15T10:29:05.264Z,6.09
2023-04-15T10:33:29.248Z,6.29
2023-04-15T10:37:53.261Z,6.57
2023-04-15T10:42:17.651Z,6.77
2023-04-15T10:46:51.322Z,6.98
2023-04-15T10:51:19.569Z,7.20
2023-04-15T10:55:55.571Z,7.42
2023-04-15T11:00:34.031Z,7.63
2023-04-15T11:04:58.106Z,8.12
2023-04-15T11:09:40.078Z,8.58
2023-04-15T11:13:56.480Z,8.86
2023-04-15T11:18:23.325Z,9.39
2023-04-15T11:22:47.623Z,9.65
2023-04-15T11:27:11.519Z,9.64
2023-04-15T11:31:35.434Z,9.81
2023-04-15T11:35:59.437Z,9.99
2023-04-15T11:40:23.426Z,10.12
2023-04-15T11:44:47.335Z,10.12
2023-04-15T11:49:11.308Z,9.99
2023-04-15T11:53:37.777Z,9.97
2023-04-15T11:58:01.823Z,9.96
2023-04-15T12:02:31.740Z,9.96
2023-04-15T12:07:07.730Z,9.91
2023-04-15T12:11:31.621Z,9.84
2023-04-15T12:16:04.111Z,9.92
2023-04-15T12:20:28.417Z,10.16
2023-04-15T12:24:52.360Z,10.30
2023-04-15T12:29:16.219Z,10.35
2023-04-15T12:33:40.210Z,10.28
2023-04-15T12:37:57.102Z,10.11
2023-04-15T12:42:20.980Z,10.06
2023-04-15T12:46:45.084Z,10.05
2023-04-15T12:51:10.142Z,9.96
2023-04-15T12:55:34.485Z,9.77
2023-04-15T12:59:58.314Z,9.51
2023-04-15T13:04:22.472Z,9.10
2023-04-15T13:08:57.212Z,8.54
2023-04-15T13:13:21.642Z,8.07
2023-04-15T13:17:48.675Z,7.87
2023-04-15T13:22:14.647Z,7.78
2023-04-15T13:26:59.724Z,7.82
2023-04-15T13:31:23.721Z,7.95
2023-04-15T13:35:47.743Z,8.06
2023-04-15T13:40:10.254Z,8.10
2023-04-15T13:44:35.226Z,8.11
2023-04-15T13:48:59.199Z,8.12
2023-04-15T13:53:33.881Z,8.19
2023-04-15T13:58:22.718Z,8.33
2023-04-15T14:02:46.707Z,8.43
2023-04-15T14:07:11.913Z,8.55
2023-04-15T14:11:37.028Z,8.64
2023-04-15T14:16:01.120Z,8.75
2023-04-15T14:20:25.019Z,8.82
2023-04-15T14:24:49.039Z,8.87
2023-04-15T14:29:12.937Z,8.94
2023-04-15T14:33:38.908Z,8.89
2023-04-15T14:38:03.937Z,8.78
2023-04-15T14:42:28.698Z,8.73
2023-04-15T14:46:52.640Z,8.80
2023-04-15T14:51:16.485Z,8.83
2023-04-15T14:55:41.421Z,8.88
2023-04-15T15:00:05.332Z,8.89
2023-04-15T15:04:49.624Z,8.87
2023-04-15T15:09:13.722Z,8.91
2023-04-15T15:13:37.575Z,8.88
2023-04-15T15:18:03.682Z,8.87
2023-04-15T15:22:27.677Z,8.90
2023-04-15T15:26:51.864Z,9.01
2023-04-15T15:31:15.922Z,9.05
2023-04-15T15:35:48.752Z,9.10
2023-04-15T15:40:14.595Z,9.02
2023-04-15T15:44:38.559Z,8.95
2023-04-15T15:49:12.011Z,8.81
2023-04-15T15:53:31.479Z,8.82
2023-04-15T15:57:55.619Z,8.71
2023-04-15T16:03:05.154Z,8.67
2023-04-15T16:07:24.339Z,8.61
2023-04-15T16:11:51.327Z,8.50
2023-04-15T16:16:15.947Z,8.56
2023-04-15T16:20:59.844Z,8.62
2023-04-15T16:25:43.764Z,8.43
2023-04-15T16:30:07.944Z,8.23
2023-04-15T16:34:33.239Z,8.23
2023-04-15T16:38:57.307Z,8.26
2023-04-15T16:43:21.235Z,8.35
2023-04-15T16:47:45.172Z,8.32
2023-04-15T16:52:09.221Z,8.14
2023-04-15T16:56:34.120Z,7.99
2023-04-15T17:00:58.244Z,7.97
2023-04-15T17:05:22.367Z,7.93
2023-04-15T17:10:06.183Z,7.86
2023-04-15T17:14:30.417Z,7.89
2023-04-15T17:18:54.229Z,7.90
2023-04-15T17:23:20.448Z,7.77
2023-04-15T17:27:36.208Z,7.71
2023-04-15T17:32:02.982Z,7.85
2023-04-15T17:36:26.907Z,8.25
2023-04-15T17:40:55.172Z,8.09
2023-04-15T17:45:49.206Z,7.82
2023-04-15T17:50:20.171Z,7.63
2023-04-15T17:59:42.090Z,7.67
2023-04-15T18:04:12.369Z,7.64
2023-04-15T18:08:37.633Z,7.56
2023-04-15T18:13:01.759Z,7.59
2023-04-15T18:17:18.507Z,7.67
2023-04-15T18:21:48.805Z,7.78
2023-04-15T18:26:15.507Z,7.85
2023-04-15T18:30:41.342Z,7.66
2023-04-15T18:35:06.516Z,7.49
2023-04-15T18:39:30.506Z,7.63
2023-04-15T18:44:14.497Z,7.75
2023-04-15T18:48:39.514Z,7.68
2023-04-15T18:53:03.425Z,7.68
2023-04-15T18:57:31.336Z,7.55
2023-04-15T19:01:57.831Z,7.38
2023-04-15T19:06:22.846Z,7.22
2023-04-15T19:10:47.520Z,7.23
2023-04-15T19:15:00.051Z,7.46
2023-04-15T19:19:15.600Z,7.44
2023-04-15T19:23:30.154Z,7.41
2023-04-15T19:27:55.166Z,7.27
2023-04-15T19:32:18.906Z,7.16
2023-04-15T19:36:34.171Z,7.29
2023-04-15T19:40:51.879Z,7.41
2023-04-15T19:44:53.997Z,7.40
2023-04-15T19:49:22.900Z,7.37
2023-04-15T19:53:38.118Z,7.25
2023-04-15T19:58:02.177Z,7.18
2023-04-15T20:02:26.522Z,7.20
2023-04-15T20:06:53.240Z,7.32
2023-04-15T20:11:18.151Z,7.33
2023-04-15T20:15:42.295Z,7.28
2023-04-15T20:20:26.336Z,7.32
2023-04-15T20:24:54.302Z,7.27
2023-04-15T20:29:18.316Z,7.24
2023-04-15T20:33:44.418Z,7.30
2023-04-15T20:38:08.595Z,7.45
2023-04-15T20:42:52.933Z,7.50
2023-04-15T20:47:16.966Z,7.47
2023-04-15T20:52:01.824Z,7.49
2023-04-15T20:56:25.855Z,7.49
2023-04-15T21:00:50.265Z,7.41
2023-04-15T21:05:14.278Z,7.42
2023-04-15T21:09:58.240Z,7.38
2023-04-15T21:14:22.215Z,7.33
2023-04-15T21:18:47.308Z,7.29
2023-04-15T21:23:13.017Z,7.40
2023-04-15T21:27:37.007Z,7.38
2023-04-15T21:32:02.076Z,7.31
2023-04-15T21:36:27.064Z,7.32
2023-04-15T21:40:51.191Z,7.19
2023-04-15T21:45:15.150Z,7.24
2023-04-15T21:49:40.090Z,7.22
2023-04-15T21:54:24.224Z,7.23
2023-04-15T21:58:48.188Z,7.30
2023-04-15T22:03:12.251Z,7.28
2023-04-15T22:07:40.083Z,7.28
2023-04-15T22:12:04.229Z,7.14
2023-04-15T22:16:20.922Z,7.15
2023-04-15T22:20:44.917Z,7.23
2023-04-15T22:25:09.003Z,7.38
2023-04-15T22:29:32.938Z,7.35
2023-04-15T22:33:59.034Z,7.20
2023-04-15T22:38:22.979Z,7.17
2023-04-15T22:42:46.888Z,7.24
2023-04-15T22:47:11.856Z,7.22
2023-04-15T22:51:35.697Z,7.26
2023-04-15T22:55:59.672Z,7.19
2023-04-15T23:00:23.520Z,7.07
2023-04-15T23:04:47.792Z,7.04
2023-04-15T23:09:12.074Z,7.06
2023-04-15T23:13:36.090Z,7.08
2023-04-15T23:18:00.536Z,7.11
2023-04-15T23:22:24.507Z,7.07
2023-04-15T23:26:49.627Z,7.01
2023-04-15T23:31:03.190Z,6.98
2023-04-15T23:35:27.240Z,6.95
2023-04-15T23:39:51.393Z,6.95
2023-04-15T23:44:25.751Z,6.90
2023-04-15T23:48:49.754Z,6.81
2023-04-15T23:53:14.921Z,6.77
2023-04-15T23:57:38.949Z,6.82
